This is the latest recevied weather packets stored in our database for station/object OK1TBF-6. If no packets are shown the sender has not sent any weather packets the latest 10 day(s).
| Time | Temp. | Humidity | Pressure | Rain* | Wind** | Luminosity | Snow |
|---|---|---|---|---|---|---|---|
| 1777237246 | 7.78° C | 45% | 1014.5 hPa | 0 mm | - | - | - |
| 1777235146 | 8.33° C | 44% | 1014.5 hPa | 0 mm | - | - | - |
| 1777234546 | 8.33° C | 44% | 1014.5 hPa | 0 mm | - | - | - |
| 1777232144 | 8.33° C | 46% | 1014.4 hPa | 0 mm | - | - | - |
| 1777229744 | 8.89° C | 48% | 1013.9 hPa | 0 mm | - | - | - |
| 1777228844 | 8.89° C | 48% | 1013.9 hPa | 0 mm | - | - | - |
| 1777227944 | 9.44° C | 47% | 1013.5 hPa | 0 mm | - | - | - |
| 1777224944 | 10.56° C | 44% | 1013.2 hPa | 0 mm | - | - | - |
| 1777224643 | 10.56° C | 43% | 1013.3 hPa | 0 mm | - | - | - |
| 1777223744 | 11.11° C | 40% | 1013.3 hPa | 0 mm | - | - | - |
| 1777219544 | 12.22° C | 37% | 1012.9 hPa | 0 mm | - | - | - |
| 1777218039 | 13.33° C | 37% | 1013 hPa | 0 mm | - | - | - |
| 1777217436 | 12.22° C | 38% | 1013.1 hPa | 0 mm | - | - | - |
| 1777211437 | 11.67° C | 42% | 1013.2 hPa | 0 mm | - | - | - |
| 1777208735 | 11.11° C | 43% | 1013.4 hPa | 0 mm | - | - | - |
| 1777206936 | 10.56° C | 45% | 1013.4 hPa | 0 mm | - | - | - |
| 1777206635 | 11.67° C | 43% | 1013.4 hPa | 0 mm | - | - | - |
| 1777206035 | 11.11° C | 45% | 1013.6 hPa | 0 mm | - | - | - |
| 1777202733 | 10° C | 47% | 1013.1 hPa | 0 mm | - | - | - |
| 1777202434 | 9.44° C | 47% | 1013.4 hPa | 0 mm | - | - | - |
| 1777202134 | 9.44° C | 47% | 1013.2 hPa | 0 mm | - | - | - |
| 1777200934 | 9.44° C | 49% | 1013.2 hPa | 0 mm | - | - | - |
| 1777200334 | 8.89° C | 51% | 1013.2 hPa | 0 mm | - | - | - |
| 1777198833 | 8.89° C | 50% | 1013.3 hPa | 0 mm | - | - | - |
| 1777198234 | 8.33° C | 49% | 1013.3 hPa | 0 mm | - | - | - |
* Rain latest hour (hover to see other rain measurements)
** Current wind speed in m/s (hover to see current wind gust speed)